sensor_id;sensor_type;location;lat;lon;timestamp;P1;durP1;ratioP1;P2;durP2;ratioP2
35993;SDS011;22066;54.274;18.578;2023-02-03T00:01:17;15.27;;;6.27;;
35993;SDS011;22066;54.274;18.578;2023-02-03T00:03:43;15.00;;;7.17;;
35993;SDS011;22066;54.274;18.578;2023-02-03T00:06:10;13.83;;;5.47;;
35993;SDS011;22066;54.274;18.578;2023-02-03T00:08:36;14.20;;;4.80;;
35993;SDS011;22066;54.274;18.578;2023-02-03T00:11:03;22.23;;;6.80;;
35993;SDS011;22066;54.274;18.578;2023-02-03T00:13:29;22.07;;;6.13;;
35993;SDS011;22066;54.274;18.578;2023-02-03T00:15:55;26.03;;;7.50;;
35993;SDS011;22066;54.274;18.578;2023-02-03T00:18:21;38.13;;;9.90;;
35993;SDS011;22066;54.274;18.578;2023-02-03T00:20:47;33.23;;;7.83;;
35993;SDS011;22066;54.274;18.578;2023-02-03T00:23:13;34.93;;;7.77;;
35993;SDS011;22066;54.274;18.578;2023-02-03T00:25:39;17.57;;;6.33;;
35993;SDS011;22066;54.274;18.578;2023-02-03T00:28:05;21.27;;;5.93;;
35993;SDS011;22066;54.274;18.578;2023-02-03T00:30:34;22.57;;;6.97;;
35993;SDS011;22066;54.274;18.578;2023-02-03T01:52:35;13.77;;;5.47;;
35993;SDS011;22066;54.274;18.578;2023-02-03T01:55:03;17.03;;;6.33;;
35993;SDS011;22066;54.274;18.578;2023-02-03T01:57:33;23.13;;;6.77;;
35993;SDS011;22066;54.274;18.578;2023-02-03T02:00:02;19.10;;;6.67;;
35993;SDS011;22066;54.274;18.578;2023-02-03T02:02:28;21.27;;;6.63;;
35993;SDS011;22066;54.274;18.578;2023-02-03T02:07:40;17.80;;;6.87;;
35993;SDS011;22066;54.274;18.578;2023-02-03T02:10:06;21.50;;;7.97;;
35993;SDS011;22066;54.274;18.578;2023-02-03T02:12:32;26.10;;;7.30;;
35993;SDS011;22066;54.274;18.578;2023-02-03T02:14:58;18.40;;;6.77;;
35993;SDS011;22066;54.274;18.578;2023-02-03T02:35:37;16.83;;;5.37;;
35993;SDS011;22066;54.274;18.578;2023-02-03T02:40:59;14.60;;;5.30;;
35993;SDS011;22066;54.274;18.578;2023-02-03T02:43:28;11.07;;;4.47;;
35993;SDS011;22066;54.274;18.578;2023-02-03T02:45:59;12.27;;;5.23;;
35993;SDS011;22066;54.274;18.578;2023-02-03T02:48:34;9.32;;;4.57;;
35993;SDS011;22066;54.274;18.578;2023-02-03T02:51:02;10.00;;;4.40;;
35993;SDS011;22066;54.274;18.578;2023-02-03T02:53:33;10.20;;;3.97;;
35993;SDS011;22066;54.274;18.578;2023-02-03T02:56:01;9.37;;;3.90;;
35993;SDS011;22066;54.274;18.578;2023-02-03T02:58:28;12.70;;;5.07;;
35993;SDS011;22066;54.274;18.578;2023-02-03T03:00:56;12.73;;;4.72;;
35993;SDS011;22066;54.274;18.578;2023-02-03T03:03:23;13.50;;;4.80;;
35993;SDS011;22066;54.274;18.578;2023-02-03T03:05:59;14.10;;;4.87;;
35993;SDS011;22066;54.274;18.578;2023-02-03T03:08:29;13.97;;;4.40;;
35993;SDS011;22066;54.274;18.578;2023-02-03T03:10:56;8.83;;;3.80;;
35993;SDS011;22066;54.274;18.578;2023-02-03T03:13:26;11.80;;;4.07;;
35993;SDS011;22066;54.274;18.578;2023-02-03T03:15:52;12.65;;;4.47;;
35993;SDS011;22066;54.274;18.578;2023-02-03T03:21:07;12.63;;;3.87;;
35993;SDS011;22066;54.274;18.578;2023-02-03T03:23:35;12.00;;;4.17;;
35993;SDS011;22066;54.274;18.578;2023-02-03T03:26:08;10.90;;;4.63;;
35993;SDS011;22066;54.274;18.578;2023-02-03T03:28:41;9.67;;;3.43;;
35993;SDS011;22066;54.274;18.578;2023-02-03T03:31:18;10.43;;;4.00;;
35993;SDS011;22066;54.274;18.578;2023-02-03T03:33:44;13.03;;;4.13;;
35993;SDS011;22066;54.274;18.578;2023-02-03T03:36:13;13.27;;;4.30;;
35993;SDS011;22066;54.274;18.578;2023-02-03T03:38:42;14.40;;;4.80;;
35993;SDS011;22066;54.274;18.578;2023-02-03T03:41:18;11.60;;;4.70;;
35993;SDS011;22066;54.274;18.578;2023-02-03T03:43:47;16.95;;;4.90;;
35993;SDS011;22066;54.274;18.578;2023-02-03T03:46:21;9.27;;;4.00;;
35993;SDS011;22066;54.274;18.578;2023-02-03T03:48:57;9.13;;;3.70;;
35993;SDS011;22066;54.274;18.578;2023-02-03T03:51:26;8.13;;;3.37;;
35993;SDS011;22066;54.274;18.578;2023-02-03T03:56:21;8.03;;;3.67;;
35993;SDS011;22066;54.274;18.578;2023-02-03T03:58:49;9.57;;;3.63;;
35993;SDS011;22066;54.274;18.578;2023-02-03T04:01:15;13.43;;;4.03;;
35993;SDS011;22066;54.274;18.578;2023-02-03T04:04:05;8.97;;;3.60;;
35993;SDS011;22066;54.274;18.578;2023-02-03T04:06:28;9.67;;;3.60;;
35993;SDS011;22066;54.274;18.578;2023-02-03T04:08:54;10.77;;;4.33;;
35993;SDS011;22066;54.274;18.578;2023-02-03T04:11:20;17.30;;;4.70;;
35993;SDS011;22066;54.274;18.578;2023-02-03T04:14:04;9.70;;;3.90;;
35993;SDS011;22066;54.274;18.578;2023-02-03T04:16:30;8.13;;;3.10;;
35993;SDS011;22066;54.274;18.578;2023-02-03T04:18:56;10.43;;;4.20;;
35993;SDS011;22066;54.274;18.578;2023-02-03T04:21:22;7.60;;;3.23;;
35993;SDS011;22066;54.274;18.578;2023-02-03T04:23:48;11.07;;;4.97;;
35993;SDS011;22066;54.274;18.578;2023-02-03T04:26:16;10.73;;;4.47;;
35993;SDS011;22066;54.274;18.578;2023-02-03T04:28:42;12.63;;;4.13;;
35993;SDS011;22066;54.274;18.578;2023-02-03T04:31:08;11.87;;;4.60;;
35993;SDS011;22066;54.274;18.578;2023-02-03T04:33:34;10.00;;;3.43;;
35993;SDS011;22066;54.274;18.578;2023-02-03T04:36:00;9.27;;;3.93;;
35993;SDS011;22066;54.274;18.578;2023-02-03T04:38:26;9.90;;;3.83;;
35993;SDS011;22066;54.274;18.578;2023-02-03T04:40:52;9.33;;;3.60;;
35993;SDS011;22066;54.274;18.578;2023-02-03T04:43:18;9.40;;;4.67;;
35993;SDS011;22066;54.274;18.578;2023-02-03T04:45:44;11.13;;;4.70;;
35993;SDS011;22066;54.274;18.578;2023-02-03T04:48:10;5.77;;;2.60;;
35993;SDS011;22066;54.274;18.578;2023-02-03T04:50:36;7.83;;;3.10;;
35993;SDS011;22066;54.274;18.578;2023-02-03T04:53:02;7.80;;;2.67;;
35993;SDS011;22066;54.274;18.578;2023-02-03T04:55:28;10.83;;;3.20;;
35993;SDS011;22066;54.274;18.578;2023-02-03T04:57:58;7.83;;;3.40;;
35993;SDS011;22066;54.274;18.578;2023-02-03T05:00:25;7.47;;;3.17;;
35993;SDS011;22066;54.274;18.578;2023-02-03T05:02:51;12.23;;;3.50;;
35993;SDS011;22066;54.274;18.578;2023-02-03T05:05:18;9.27;;;3.73;;
35993;SDS011;22066;54.274;18.578;2023-02-03T05:07:44;7.63;;;3.37;;
35993;SDS011;22066;54.274;18.578;2023-02-03T05:10:10;7.03;;;2.80;;
35993;SDS011;22066;54.274;18.578;2023-02-03T05:12:36;8.67;;;3.63;;
35993;SDS011;22066;54.274;18.578;2023-02-03T05:15:02;7.60;;;3.67;;
35993;SDS011;22066;54.274;18.578;2023-02-03T05:17:28;9.40;;;3.63;;
35993;SDS011;22066;54.274;18.578;2023-02-03T05:19:54;8.50;;;3.87;;
35993;SDS011;22066;54.274;18.578;2023-02-03T05:22:20;15.37;;;7.60;;
35993;SDS011;22066;54.274;18.578;2023-02-03T05:24:46;8.67;;;4.17;;
35993;SDS011;22066;54.274;18.578;2023-02-03T05:27:12;8.30;;;3.87;;
35993;SDS011;22066;54.274;18.578;2023-02-03T05:29:38;10.37;;;4.13;;
35993;SDS011;22066;54.274;18.578;2023-02-03T05:32:04;9.77;;;3.30;;
35993;SDS011;22066;54.274;18.578;2023-02-03T05:34:30;6.23;;;3.17;;
35993;SDS011;22066;54.274;18.578;2023-02-03T05:36:56;6.17;;;2.70;;
35993;SDS011;22066;54.274;18.578;2023-02-03T05:39:22;13.07;;;3.77;;
35993;SDS011;22066;54.274;18.578;2023-02-03T05:41:48;14.00;;;3.43;;
35993;SDS011;22066;54.274;18.578;2023-02-03T05:44:21;15.77;;;3.63;;
35993;SDS011;22066;54.274;18.578;2023-02-03T05:46:47;9.40;;;2.70;;
35993;SDS011;22066;54.274;18.578;2023-02-03T05:49:14;8.97;;;3.23;;
35993;SDS011;22066;54.274;18.578;2023-02-03T05:51:40;13.10;;;4.63;;
35993;SDS011;22066;54.274;18.578;2023-02-03T05:54:06;10.13;;;3.37;;
35993;SDS011;22066;54.274;18.578;2023-02-03T05:56:32;13.07;;;5.50;;
35993;SDS011;22066;54.274;18.578;2023-02-03T05:58:58;10.63;;;4.73;;
35993;SDS011;22066;54.274;18.578;2023-02-03T06:01:24;11.57;;;4.70;;
35993;SDS011;22066;54.274;18.578;2023-02-03T06:03:50;14.63;;;6.03;;
35993;SDS011;22066;54.274;18.578;2023-02-03T06:06:17;12.50;;;4.50;;
35993;SDS011;22066;54.274;18.578;2023-02-03T06:08:43;11.37;;;5.33;;
35993;SDS011;22066;54.274;18.578;2023-02-03T06:11:09;13.27;;;6.13;;
35993;SDS011;22066;54.274;18.578;2023-02-03T06:13:35;16.50;;;6.47;;
35993;SDS011;22066;54.274;18.578;2023-02-03T06:16:02;14.53;;;5.87;;
35993;SDS011;22066;54.274;18.578;2023-02-03T06:18:29;15.60;;;6.73;;
35993;SDS011;22066;54.274;18.578;2023-02-03T06:20:55;13.07;;;6.07;;
35993;SDS011;22066;54.274;18.578;2023-02-03T06:23:21;15.73;;;6.40;;
35993;SDS011;22066;54.274;18.578;2023-02-03T06:25:48;15.30;;;6.27;;
35993;SDS011;22066;54.274;18.578;2023-02-03T06:28:14;14.83;;;6.67;;
35993;SDS011;22066;54.274;18.578;2023-02-03T06:30:40;13.67;;;6.03;;
35993;SDS011;22066;54.274;18.578;2023-02-03T06:33:06;13.63;;;6.53;;
35993;SDS011;22066;54.274;18.578;2023-02-03T06:35:32;17.63;;;6.43;;
35993;SDS011;22066;54.274;18.578;2023-02-03T06:37:59;17.00;;;6.63;;
35993;SDS011;22066;54.274;18.578;2023-02-03T06:40:25;15.60;;;5.97;;
35993;SDS011;22066;54.274;18.578;2023-02-03T06:42:51;20.97;;;6.30;;
35993;SDS011;22066;54.274;18.578;2023-02-03T06:45:17;11.27;;;5.43;;
35993;SDS011;22066;54.274;18.578;2023-02-03T06:47:43;11.50;;;5.80;;
35993;SDS011;22066;54.274;18.578;2023-02-03T06:50:11;14.50;;;5.57;;
35993;SDS011;22066;54.274;18.578;2023-02-03T06:52:37;13.23;;;4.85;;
35993;SDS011;22066;54.274;18.578;2023-02-03T06:55:04;12.90;;;5.67;;
35993;SDS011;22066;54.274;18.578;2023-02-03T06:57:30;12.70;;;5.43;;
35993;SDS011;22066;54.274;18.578;2023-02-03T06:59:56;11.53;;;4.93;;
35993;SDS011;22066;54.274;18.578;2023-02-03T07:02:22;12.40;;;4.63;;
35993;SDS011;22066;54.274;18.578;2023-02-03T07:04:48;14.77;;;5.47;;
35993;SDS011;22066;54.274;18.578;2023-02-03T07:07:14;11.80;;;4.37;;
35993;SDS011;22066;54.274;18.578;2023-02-03T07:09:41;11.77;;;4.67;;
35993;SDS011;22066;54.274;18.578;2023-02-03T07:12:07;10.87;;;4.47;;
35993;SDS011;22066;54.274;18.578;2023-02-03T07:14:33;13.37;;;5.10;;
35993;SDS011;22066;54.274;18.578;2023-02-03T07:17:00;10.77;;;4.37;;
35993;SDS011;22066;54.274;18.578;2023-02-03T07:19:26;12.77;;;5.03;;
35993;SDS011;22066;54.274;18.578;2023-02-03T07:21:52;12.80;;;5.43;;
35993;SDS011;22066;54.274;18.578;2023-02-03T07:24:19;13.23;;;6.53;;
35993;SDS011;22066;54.274;18.578;2023-02-03T07:26:45;15.57;;;6.13;;
35993;SDS011;22066;54.274;18.578;2023-02-03T07:29:11;16.00;;;5.50;;
35993;SDS011;22066;54.274;18.578;2023-02-03T07:31:37;8.53;;;4.30;;
35993;SDS011;22066;54.274;18.578;2023-02-03T07:34:03;10.73;;;4.83;;
35993;SDS011;22066;54.274;18.578;2023-02-03T07:36:30;10.27;;;4.87;;
35993;SDS011;22066;54.274;18.578;2023-02-03T07:38:56;13.60;;;5.33;;
35993;SDS011;22066;54.274;18.578;2023-02-03T07:41:22;13.13;;;5.03;;
35993;SDS011;22066;54.274;18.578;2023-02-03T07:43:48;15.53;;;5.57;;
35993;SDS011;22066;54.274;18.578;2023-02-03T07:46:14;16.63;;;5.60;;
35993;SDS011;22066;54.274;18.578;2023-02-03T07:48:41;23.80;;;6.60;;
35993;SDS011;22066;54.274;18.578;2023-02-03T07:51:07;12.43;;;4.00;;
35993;SDS011;22066;54.274;18.578;2023-02-03T07:53:33;10.67;;;4.33;;
35993;SDS011;22066;54.274;18.578;2023-02-03T07:55:59;11.93;;;4.70;;
35993;SDS011;22066;54.274;18.578;2023-02-03T07:58:26;8.47;;;4.33;;
35993;SDS011;22066;54.274;18.578;2023-02-03T08:00:52;11.40;;;5.03;;
35993;SDS011;22066;54.274;18.578;2023-02-03T08:03:18;5.83;;;3.00;;
35993;SDS011;22066;54.274;18.578;2023-02-03T08:05:44;9.77;;;4.00;;
35993;SDS011;22066;54.274;18.578;2023-02-03T08:08:10;9.90;;;4.37;;
35993;SDS011;22066;54.274;18.578;2023-02-03T08:10:37;14.27;;;5.03;;
35993;SDS011;22066;54.274;18.578;2023-02-03T08:13:03;11.27;;;4.30;;
35993;SDS011;22066;54.274;18.578;2023-02-03T08:15:29;8.03;;;3.70;;
35993;SDS011;22066;54.274;18.578;2023-02-03T08:17:55;11.70;;;4.30;;
35993;SDS011;22066;54.274;18.578;2023-02-03T08:20:21;34.10;;;13.60;;
35993;SDS011;22066;54.274;18.578;2023-02-03T08:22:48;83.53;;;50.90;;
35993;SDS011;22066;54.274;18.578;2023-02-03T08:25:14;29.53;;;19.50;;
35993;SDS011;22066;54.274;18.578;2023-02-03T08:27:40;20.93;;;9.43;;
35993;SDS011;22066;54.274;18.578;2023-02-03T08:30:07;18.17;;;7.43;;
35993;SDS011;22066;54.274;18.578;2023-02-03T08:32:34;36.90;;;16.90;;
35993;SDS011;22066;54.274;18.578;2023-02-03T08:35:00;24.03;;;13.83;;
35993;SDS011;22066;54.274;18.578;2023-02-03T08:37:26;16.20;;;7.90;;
35993;SDS011;22066;54.274;18.578;2023-02-03T08:39:55;22.53;;;11.13;;
35993;SDS011;22066;54.274;18.578;2023-02-03T08:42:21;18.50;;;8.80;;
35993;SDS011;22066;54.274;18.578;2023-02-03T08:44:47;16.27;;;8.20;;
35993;SDS011;22066;54.274;18.578;2023-02-03T08:47:14;15.73;;;6.27;;
35993;SDS011;22066;54.274;18.578;2023-02-03T08:49:40;12.77;;;6.70;;
35993;SDS011;22066;54.274;18.578;2023-02-03T08:52:07;27.23;;;19.37;;
35993;SDS011;22066;54.274;18.578;2023-02-03T08:54:33;22.83;;;12.33;;
35993;SDS011;22066;54.274;18.578;2023-02-03T08:56:59;12.13;;;5.30;;
35993;SDS011;22066;54.274;18.578;2023-02-03T08:59:25;18.73;;;10.73;;
35993;SDS011;22066;54.274;18.578;2023-02-03T09:01:51;13.00;;;6.93;;
35993;SDS011;22066;54.274;18.578;2023-02-03T09:04:18;15.97;;;6.70;;
35993;SDS011;22066;54.274;18.578;2023-02-03T09:06:52;12.80;;;6.57;;
35993;SDS011;22066;54.274;18.578;2023-02-03T09:09:21;19.43;;;9.60;;
35993;SDS011;22066;54.274;18.578;2023-02-03T09:11:47;19.60;;;9.23;;
35993;SDS011;22066;54.274;18.578;2023-02-03T09:14:14;12.60;;;5.90;;
35993;SDS011;22066;54.274;18.578;2023-02-03T09:16:40;14.30;;;6.77;;
35993;SDS011;22066;54.274;18.578;2023-02-03T09:19:06;13.80;;;6.63;;
35993;SDS011;22066;54.274;18.578;2023-02-03T09:21:32;14.07;;;7.93;;
35993;SDS011;22066;54.274;18.578;2023-02-03T09:24:02;8.73;;;4.57;;
35993;SDS011;22066;54.274;18.578;2023-02-03T09:26:28;19.03;;;9.47;;
35993;SDS011;22066;54.274;18.578;2023-02-03T09:28:54;33.93;;;12.90;;
35993;SDS011;22066;54.274;18.578;2023-02-03T09:31:20;17.13;;;8.03;;
35993;SDS011;22066;54.274;18.578;2023-02-03T09:33:46;18.97;;;8.67;;
35993;SDS011;22066;54.274;18.578;2023-02-03T09:36:13;26.17;;;9.63;;
35993;SDS011;22066;54.274;18.578;2023-02-03T09:38:40;35.43;;;14.17;;
35993;SDS011;22066;54.274;18.578;2023-02-03T09:43:52;139.03;;;52.13;;
35993;SDS011;22066;54.274;18.578;2023-02-03T09:46:21;151.63;;;51.37;;
35993;SDS011;22066;54.274;18.578;2023-02-03T09:48:52;240.38;;;78.80;;
35993;SDS011;22066;54.274;18.578;2023-02-03T09:51:28;127.53;;;49.23;;
35993;SDS011;22066;54.274;18.578;2023-02-03T09:53:58;87.90;;;45.85;;
35993;SDS011;22066;54.274;18.578;2023-02-03T09:56:27;64.67;;;34.13;;
35993;SDS011;22066;54.274;18.578;2023-02-03T09:58:54;27.03;;;13.33;;
35993;SDS011;22066;54.274;18.578;2023-02-03T10:01:20;20.50;;;8.13;;
35993;SDS011;22066;54.274;18.578;2023-02-03T10:03:51;21.67;;;8.30;;
35993;SDS011;22066;54.274;18.578;2023-02-03T10:06:28;15.70;;;6.60;;
35993;SDS011;22066;54.274;18.578;2023-02-03T10:18:50;18.83;;;8.13;;
35993;SDS011;22066;54.274;18.578;2023-02-03T10:21:23;20.93;;;10.00;;
35993;SDS011;22066;54.274;18.578;2023-02-03T10:23:54;33.90;;;15.30;;
35993;SDS011;22066;54.274;18.578;2023-02-03T10:26:24;36.22;;;13.77;;
35993;SDS011;22066;54.274;18.578;2023-02-03T10:31:18;12.80;;;6.47;;
35993;SDS011;22066;54.274;18.578;2023-02-03T10:33:44;13.90;;;4.75;;
35993;SDS011;22066;54.274;18.578;2023-02-03T10:36:17;20.97;;;8.83;;
35993;SDS011;22066;54.274;18.578;2023-02-03T10:41:10;21.20;;;9.13;;
35993;SDS011;22066;54.274;18.578;2023-02-03T10:43:36;17.87;;;7.80;;
35993;SDS011;22066;54.274;18.578;2023-02-03T10:46:14;17.47;;;8.93;;
35993;SDS011;22066;54.274;18.578;2023-02-03T10:48:41;16.93;;;6.97;;
35993;SDS011;22066;54.274;18.578;2023-02-03T10:53:42;13.57;;;6.57;;
35993;SDS011;22066;54.274;18.578;2023-02-03T10:56:10;13.60;;;6.00;;
35993;SDS011;22066;54.274;18.578;2023-02-03T10:58:38;18.90;;;9.43;;
35993;SDS011;22066;54.274;18.578;2023-02-03T11:03:30;16.57;;;7.50;;
35993;SDS011;22066;54.274;18.578;2023-02-03T11:06:10;15.80;;;8.10;;
35993;SDS011;22066;54.274;18.578;2023-02-03T11:08:38;19.27;;;8.90;;
35993;SDS011;22066;54.274;18.578;2023-02-03T11:11:05;16.83;;;8.20;;
35993;SDS011;22066;54.274;18.578;2023-02-03T11:13:32;21.55;;;9.05;;
35993;SDS011;22066;54.274;18.578;2023-02-03T11:16:16;18.67;;;7.03;;
35993;SDS011;22066;54.274;18.578;2023-02-03T11:21:15;13.83;;;8.33;;
35993;SDS011;22066;54.274;18.578;2023-02-03T11:26:18;14.07;;;7.33;;
35993;SDS011;22066;54.274;18.578;2023-02-03T11:28:45;22.58;;;9.00;;
35993;SDS011;22066;54.274;18.578;2023-02-03T11:31:22;17.20;;;8.00;;
35993;SDS011;22066;54.274;18.578;2023-02-03T11:33:50;16.63;;;7.13;;
35993;SDS011;22066;54.274;18.578;2023-02-03T11:36:17;14.75;;;7.22;;
35993;SDS011;22066;54.274;18.578;2023-02-03T11:38:43;15.00;;;7.10;;
35993;SDS011;22066;54.274;18.578;2023-02-03T11:41:16;19.03;;;6.97;;
35993;SDS011;22066;54.274;18.578;2023-02-03T11:43:42;13.17;;;6.50;;
35993;SDS011;22066;54.274;18.578;2023-02-03T11:46:09;14.03;;;6.97;;
35993;SDS011;22066;54.274;18.578;2023-02-03T11:58:42;17.40;;;6.07;;
35993;SDS011;22066;54.274;18.578;2023-02-03T12:13:58;19.03;;;8.67;;
35993;SDS011;22066;54.274;18.578;2023-02-03T12:29:51;22.10;;;11.47;;
35993;SDS011;22066;54.274;18.578;2023-02-03T12:34:39;16.08;;;8.38;;
35993;SDS011;22066;54.274;18.578;2023-02-03T12:37:12;22.63;;;9.57;;
35993;SDS011;22066;54.274;18.578;2023-02-03T12:39:51;22.33;;;10.57;;
35993;SDS011;22066;54.274;18.578;2023-02-03T12:42:19;19.10;;;9.93;;
35993;SDS011;22066;54.274;18.578;2023-02-03T12:49:55;24.87;;;9.90;;
35993;SDS011;22066;54.274;18.578;2023-02-03T12:52:27;22.87;;;10.03;;
35993;SDS011;22066;54.274;18.578;2023-02-03T12:55:13;20.20;;;10.00;;
35993;SDS011;22066;54.274;18.578;2023-02-03T12:57:43;18.67;;;8.10;;
35993;SDS011;22066;54.274;18.578;2023-02-03T13:02:41;18.07;;;8.13;;
35993;SDS011;22066;54.274;18.578;2023-02-03T13:05:16;14.67;;;6.37;;
35993;SDS011;22066;54.274;18.578;2023-02-03T13:07:55;18.50;;;8.20;;
35993;SDS011;22066;54.274;18.578;2023-02-03T13:10:42;14.23;;;7.33;;
35993;SDS011;22066;54.274;18.578;2023-02-03T13:13:13;16.23;;;6.67;;
35993;SDS011;22066;54.274;18.578;2023-02-03T13:15:44;16.15;;;7.38;;
35993;SDS011;22066;54.274;18.578;2023-02-03T13:20:40;19.00;;;7.17;;
35993;SDS011;22066;54.274;18.578;2023-02-03T13:23:07;13.90;;;5.40;;
35993;SDS011;22066;54.274;18.578;2023-02-03T13:39:19;11.80;;;5.10;;
35993;SDS011;22066;54.274;18.578;2023-02-03T13:41:51;13.17;;;5.10;;
35993;SDS011;22066;54.274;18.578;2023-02-03T13:46:46;15.87;;;6.47;;
35993;SDS011;22066;54.274;18.578;2023-02-03T13:49:19;29.98;;;12.68;;
35993;SDS011;22066;54.274;18.578;2023-02-03T13:51:47;19.47;;;7.50;;
35993;SDS011;22066;54.274;18.578;2023-02-03T13:54:15;17.23;;;6.60;;
35993;SDS011;22066;54.274;18.578;2023-02-03T13:56:51;17.83;;;8.53;;
35993;SDS011;22066;54.274;18.578;2023-02-03T13:59:40;16.17;;;8.77;;
35993;SDS011;22066;54.274;18.578;2023-02-03T14:12:30;21.03;;;8.30;;
35993;SDS011;22066;54.274;18.578;2023-02-03T14:14:58;11.03;;;5.73;;
35993;SDS011;22066;54.274;18.578;2023-02-03T14:25:18;24.73;;;10.83;;
35993;SDS011;22066;54.274;18.578;2023-02-03T14:27:44;25.30;;;11.23;;
35993;SDS011;22066;54.274;18.578;2023-02-03T14:30:11;28.50;;;13.60;;
35993;SDS011;22066;54.274;18.578;2023-02-03T14:32:54;26.55;;;10.98;;
35993;SDS011;22066;54.274;18.578;2023-02-03T14:35:28;24.97;;;11.93;;
35993;SDS011;22066;54.274;18.578;2023-02-03T14:37:56;26.97;;;11.33;;
35993;SDS011;22066;54.274;18.578;2023-02-03T14:43:07;20.50;;;11.40;;
35993;SDS011;22066;54.274;18.578;2023-02-03T14:51:03;15.50;;;9.00;;
35993;SDS011;22066;54.274;18.578;2023-02-03T14:56:06;9.90;;;4.90;;
35993;SDS011;22066;54.274;18.578;2023-02-03T14:58:39;19.20;;;8.17;;
35993;SDS011;22066;54.274;18.578;2023-02-03T15:01:07;23.53;;;11.73;;
35993;SDS011;22066;54.274;18.578;2023-02-03T15:04:06;8.90;;;5.00;;
35993;SDS011;22066;54.274;18.578;2023-02-03T15:06:51;21.10;;;9.53;;
35993;SDS011;22066;54.274;18.578;2023-02-03T15:12:17;19.47;;;9.13;;
35993;SDS011;22066;54.274;18.578;2023-02-03T15:14:44;26.13;;;12.47;;
35993;SDS011;22066;54.274;18.578;2023-02-03T15:19:48;26.47;;;11.47;;
35993;SDS011;22066;54.274;18.578;2023-02-03T15:22:36;28.40;;;11.23;;
35993;SDS011;22066;54.274;18.578;2023-02-03T15:25:04;29.47;;;12.27;;
35993;SDS011;22066;54.274;18.578;2023-02-03T15:27:39;34.23;;;11.87;;
35993;SDS011;22066;54.274;18.578;2023-02-03T15:30:20;22.40;;;9.93;;
35993;SDS011;22066;54.274;18.578;2023-02-03T15:32:57;24.80;;;10.73;;
35993;SDS011;22066;54.274;18.578;2023-02-03T15:37:53;23.20;;;11.27;;
35993;SDS011;22066;54.274;18.578;2023-02-03T15:40:21;22.10;;;10.27;;
35993;SDS011;22066;54.274;18.578;2023-02-03T15:47:54;130.63;;;32.22;;
35993;SDS011;22066;54.274;18.578;2023-02-03T15:52:46;24.07;;;10.53;;
35993;SDS011;22066;54.274;18.578;2023-02-03T15:58:14;29.70;;;10.80;;
35993;SDS011;22066;54.274;18.578;2023-02-03T16:00:41;22.47;;;9.00;;
35993;SDS011;22066;54.274;18.578;2023-02-03T16:03:15;20.40;;;8.00;;
35993;SDS011;22066;54.274;18.578;2023-02-03T16:05:43;17.90;;;7.63;;
35993;SDS011;22066;54.274;18.578;2023-02-03T16:08:25;26.77;;;11.30;;
35993;SDS011;22066;54.274;18.578;2023-02-03T16:10:54;19.97;;;9.53;;
35993;SDS011;22066;54.274;18.578;2023-02-03T16:13:24;25.63;;;12.57;;
35993;SDS011;22066;54.274;18.578;2023-02-03T16:18:22;20.93;;;7.67;;
35993;SDS011;22066;54.274;18.578;2023-02-03T16:20:49;19.87;;;8.83;;
35993;SDS011;22066;54.274;18.578;2023-02-03T16:23:22;21.07;;;9.10;;
35993;SDS011;22066;54.274;18.578;2023-02-03T16:26:01;15.87;;;6.13;;
35993;SDS011;22066;54.274;18.578;2023-02-03T16:28:27;114.80;;;29.77;;
35993;SDS011;22066;54.274;18.578;2023-02-03T16:31:13;18.43;;;9.13;;
35993;SDS011;22066;54.274;18.578;2023-02-03T16:33:59;20.03;;;8.53;;
35993;SDS011;22066;54.274;18.578;2023-02-03T16:36:44;21.50;;;8.90;;
35993;SDS011;22066;54.274;18.578;2023-02-03T16:39:29;17.33;;;8.37;;
35993;SDS011;22066;54.274;18.578;2023-02-03T16:42:17;15.03;;;7.17;;
35993;SDS011;22066;54.274;18.578;2023-02-03T16:45:03;15.07;;;6.87;;
35993;SDS011;22066;54.274;18.578;2023-02-03T16:47:48;16.87;;;8.00;;
35993;SDS011;22066;54.274;18.578;2023-02-03T16:50:34;17.80;;;7.47;;
35993;SDS011;22066;54.274;18.578;2023-02-03T16:53:29;24.70;;;8.37;;
35993;SDS011;22066;54.274;18.578;2023-02-03T16:55:56;20.13;;;9.33;;
35993;SDS011;22066;54.274;18.578;2023-02-03T16:58:22;52.50;;;16.27;;
35993;SDS011;22066;54.274;18.578;2023-02-03T17:00:49;19.73;;;7.90;;
35993;SDS011;22066;54.274;18.578;2023-02-03T17:03:17;29.93;;;11.70;;
35993;SDS011;22066;54.274;18.578;2023-02-03T17:05:44;16.17;;;7.95;;
35993;SDS011;22066;54.274;18.578;2023-02-03T17:08:10;53.20;;;19.53;;
35993;SDS011;22066;54.274;18.578;2023-02-03T17:10:37;23.73;;;10.70;;
35993;SDS011;22066;54.274;18.578;2023-02-03T17:13:03;22.80;;;8.33;;
35993;SDS011;22066;54.274;18.578;2023-02-03T17:15:29;16.10;;;7.53;;
35993;SDS011;22066;54.274;18.578;2023-02-03T17:17:57;17.67;;;8.47;;
35993;SDS011;22066;54.274;18.578;2023-02-03T17:20:23;18.90;;;8.40;;
35993;SDS011;22066;54.274;18.578;2023-02-03T17:22:49;18.03;;;7.70;;
35993;SDS011;22066;54.274;18.578;2023-02-03T17:25:18;16.03;;;7.00;;
35993;SDS011;22066;54.274;18.578;2023-02-03T17:27:44;15.87;;;7.73;;
35993;SDS011;22066;54.274;18.578;2023-02-03T17:30:11;19.53;;;9.40;;
35993;SDS011;22066;54.274;18.578;2023-02-03T17:32:37;21.57;;;6.70;;
35993;SDS011;22066;54.274;18.578;2023-02-03T17:35:03;20.07;;;8.53;;
35993;SDS011;22066;54.274;18.578;2023-02-03T17:37:33;17.10;;;8.13;;
35993;SDS011;22066;54.274;18.578;2023-02-03T17:39:59;15.50;;;4.70;;
35993;SDS011;22066;54.274;18.578;2023-02-03T17:42:25;16.73;;;6.43;;
35993;SDS011;22066;54.274;18.578;2023-02-03T17:44:51;14.97;;;6.03;;
35993;SDS011;22066;54.274;18.578;2023-02-03T17:47:17;23.30;;;6.17;;
35993;SDS011;22066;54.274;18.578;2023-02-03T17:49:43;23.17;;;7.97;;
35993;SDS011;22066;54.274;18.578;2023-02-03T17:52:11;14.55;;;6.57;;
35993;SDS011;22066;54.274;18.578;2023-02-03T17:54:37;21.50;;;8.47;;
35993;SDS011;22066;54.274;18.578;2023-02-03T17:57:03;29.83;;;10.90;;
35993;SDS011;22066;54.274;18.578;2023-02-03T17:59:29;16.03;;;7.57;;
35993;SDS011;22066;54.274;18.578;2023-02-03T18:04:23;15.67;;;6.67;;
35993;SDS011;22066;54.274;18.578;2023-02-03T18:06:50;15.37;;;5.97;;
35993;SDS011;22066;54.274;18.578;2023-02-03T18:09:18;13.15;;;5.35;;
35993;SDS011;22066;54.274;18.578;2023-02-03T18:11:44;13.83;;;5.73;;
35993;SDS011;22066;54.274;18.578;2023-02-03T18:14:13;10.03;;;4.33;;
35993;SDS011;22066;54.274;18.578;2023-02-03T18:16:40;11.13;;;5.57;;
35993;SDS011;22066;54.274;18.578;2023-02-03T18:19:07;15.20;;;5.63;;
35993;SDS011;22066;54.274;18.578;2023-02-03T18:21:36;14.10;;;5.73;;
35993;SDS011;22066;54.274;18.578;2023-02-03T18:26:30;14.05;;;5.80;;
35993;SDS011;22066;54.274;18.578;2023-02-03T18:28:58;19.57;;;8.83;;
35993;SDS011;22066;54.274;18.578;2023-02-03T18:31:25;15.37;;;6.50;;
35993;SDS011;22066;54.274;18.578;2023-02-03T18:33:51;18.67;;;7.90;;
35993;SDS011;22066;54.274;18.578;2023-02-03T18:36:17;16.27;;;6.57;;
35993;SDS011;22066;54.274;18.578;2023-02-03T18:38:44;17.77;;;7.80;;
35993;SDS011;22066;54.274;18.578;2023-02-03T18:41:12;21.80;;;9.20;;
35993;SDS011;22066;54.274;18.578;2023-02-03T18:43:40;22.33;;;9.90;;
35993;SDS011;22066;54.274;18.578;2023-02-03T18:46:10;17.93;;;6.40;;